KSFF/SFF METAR and TAF weather

Enter ICAO airport designator
Station Type Date Time Source
KSFF METAR 2021/08/05 03:53 UTC NOAA

KSFF 050353Z AUTO 10003KT 9SM FU CLR 28/07 A2989 RMK AO2 SLP100 T02780072


Station Type Date Time Source
KSFF Decoded METAR 2021/08/05 03:53 UTC NOAA

FELTS FIELD, WA, United States (KSFF) 47-41N 117-19W 609M
Aug 04, 2021 - 11:53 PM EDT / 2021.08.05 0353 UTC
Wind: from the E (100 degrees) at 3 MPH (3 KT):0
Visibility: 9 mile(s):0
Sky conditions: clear
Weather: smoke
Temperature: 82.0 F (27.8 C)
Dew Point: 45.0 F (7.2 C)
Relative Humidity: 27%
Pressure (altimeter): 29.89 in. Hg (1012 hPa)
ob: KSFF 050353Z AUTO 10003KT 9SM FU CLR 28/07 A2989 RMK AO2 SLP100 T02780072
cycle: 4

Station Type Date Time Source
KSFF TAF 2021/08/04 18:42 UTC NOAA

TAF KSFF 041740Z 0418/0518 VRB03KT 6SM FU SCT030 BKN100
FM042000 28005KT 5SM FU FEW050 SCT070
FM050500 VRB02KT 6SM HZ FEW050
FM051200 11005KT 6SM HZ FEW050

Example: see airport list